createdAt,value
2022-12-20T00:01:34.227Z,97288.19
2022-12-20T00:04:05.434Z,97278.34
2022-12-20T00:06:35.226Z,97278.59
2022-12-20T00:09:06.167Z,97285.91
2022-12-20T00:11:33.089Z,97283.34
2022-12-20T00:13:59.920Z,97269.41
2022-12-20T00:16:29.048Z,97269.69
2022-12-20T00:19:00.111Z,97267.50
2022-12-20T00:21:28.469Z,97259.75
2022-12-20T00:23:55.865Z,97271.31
2022-12-20T00:26:29.311Z,97269.72
2022-12-20T00:28:56.797Z,97269.59
2022-12-20T00:31:25.865Z,97254.56
2022-12-20T00:33:55.393Z,97249.22
2022-12-20T00:36:24.527Z,97270.56
2022-12-20T00:38:55.066Z,97278.72
2022-12-20T00:41:28.673Z,97246.94
2022-12-20T00:43:55.875Z,97254.69
2022-12-20T00:46:24.537Z,97260.13
2022-12-20T00:48:53.534Z,97248.91
2022-12-20T00:51:27.397Z,97239.19
2022-12-20T00:53:54.845Z,97249.84
2022-12-20T00:56:22.113Z,97264.03
2022-12-20T00:58:49.507Z,97283.72
2022-12-20T01:01:27.823Z,97276.81
2022-12-20T01:03:55.290Z,97280.19
2022-12-20T01:06:24.887Z,97272.34
2022-12-20T01:08:53.755Z,97278.50
2022-12-20T01:11:27.347Z,97261.91
2022-12-20T01:13:57.286Z,97267.38
2022-12-20T01:16:45.556Z,97272.50
2022-12-20T01:19:17.321Z,97257.94
2022-12-20T01:21:44.720Z,97253.56
2022-12-20T01:24:16.667Z,97254.66
2022-12-20T01:26:44.513Z,97244.84
2022-12-20T01:29:12.141Z,97243.00
2022-12-20T01:31:39.014Z,97250.03
2022-12-20T01:34:06.722Z,97258.03
2022-12-20T01:36:35.835Z,97253.69
2022-12-20T01:39:11.483Z,97263.63
2022-12-20T01:41:39.247Z,97260.84
2022-12-20T01:44:18.321Z,97256.75
2022-12-20T01:46:48.092Z,97251.28
2022-12-20T01:49:46.007Z,97250.81
2022-12-20T01:52:23.116Z,97248.16
2022-12-20T01:55:13.750Z,97246.69
2022-12-20T01:57:51.555Z,97240.66
2022-12-20T02:00:19.177Z,97232.53
2022-12-20T02:02:49.434Z,97226.44
2022-12-20T02:05:19.078Z,97232.75
2022-12-20T02:07:49.502Z,97233.88
2022-12-20T02:10:18.617Z,97232.91
2022-12-20T02:12:47.760Z,97234.72
2022-12-20T02:15:39.209Z,97222.63
2022-12-20T02:18:24.159Z,97225.16
2022-12-20T02:21:25.784Z,97233.28
2022-12-20T02:24:47.566Z,97234.13
2022-12-20T02:27:42.488Z,97226.13
2022-12-20T02:30:18.580Z,97217.88
2022-12-20T02:32:59.085Z,97217.59
2022-12-20T02:35:31.484Z,97215.66
2022-12-20T02:38:04.946Z,97225.09
2022-12-20T02:40:42.372Z,97222.44
2022-12-20T02:43:29.424Z,97191.84
2022-12-20T02:45:59.278Z,97198.88
2022-12-20T02:48:29.322Z,97203.22
2022-12-20T02:50:59.145Z,97184.53
2022-12-20T02:53:26.580Z,97185.13
2022-12-20T02:56:14.822Z,97166.69
2022-12-20T02:58:58.463Z,97177.53
2022-12-20T03:01:36.733Z,97191.84
2022-12-20T03:04:05.036Z,97190.88
2022-12-20T03:06:31.817Z,97200.56
2022-12-20T03:08:58.609Z,97193.53
2022-12-20T03:11:28.196Z,97182.84
2022-12-20T03:13:55.323Z,97175.00
2022-12-20T03:16:22.266Z,97172.31
2022-12-20T03:18:49.153Z,97161.75
2022-12-20T03:21:15.986Z,97167.25
2022-12-20T03:23:42.797Z,97184.34
2022-12-20T03:26:09.604Z,97191.75
2022-12-20T03:28:41.952Z,97194.56
2022-12-20T03:31:11.480Z,97194.81
2022-12-20T03:33:45.105Z,97194.94
2022-12-20T03:36:12.224Z,97180.78
2022-12-20T03:38:39.415Z,97181.47
2022-12-20T03:41:07.966Z,97170.69
2022-12-20T03:43:34.833Z,97173.22
2022-12-20T03:46:02.254Z,97167.88
2022-12-20T03:48:34.298Z,97157.47
2022-12-20T03:51:01.207Z,97154.78
2022-12-20T03:53:28.007Z,97144.41
2022-12-20T03:55:54.980Z,97145.34
2022-12-20T03:58:22.017Z,97151.41
2022-12-20T04:00:48.979Z,97148.59
2022-12-20T04:03:37.994Z,97151.16
2022-12-20T04:06:04.963Z,97147.38
2022-12-20T04:08:32.189Z,97142.88
2022-12-20T04:11:17.490Z,97154.28
2022-12-20T04:14:07.227Z,97153.31
2022-12-20T04:16:34.630Z,97161.31
2022-12-20T04:19:02.410Z,97164.69
2022-12-20T04:21:35.956Z,97154.72
2022-12-20T04:24:05.748Z,97163.59
2022-12-20T04:26:51.112Z,97152.66
2022-12-20T04:29:18.184Z,97155.19
2022-12-20T04:31:46.182Z,97139.75
2022-12-20T04:34:13.072Z,97140.50
2022-12-20T04:36:40.043Z,97142.75
2022-12-20T04:39:12.867Z,97120.28
2022-12-20T04:41:59.908Z,97110.06
2022-12-20T04:44:26.780Z,97123.13
2022-12-20T04:46:53.734Z,97116.84
2022-12-20T04:49:20.679Z,97112.19
2022-12-20T04:51:47.470Z,97111.78
2022-12-20T04:54:16.764Z,97112.38
2022-12-20T04:56:51.016Z,97112.81
2022-12-20T04:59:21.729Z,97115.09
2022-12-20T05:01:51.571Z,97113.53
2022-12-20T05:04:37.912Z,97106.28
2022-12-20T05:07:05.370Z,97108.56
2022-12-20T05:09:33.012Z,97105.47
2022-12-20T05:12:00.434Z,97097.66
2022-12-20T05:14:27.384Z,97090.06
2022-12-20T05:16:54.558Z,97092.19
2022-12-20T05:19:21.559Z,97096.41
2022-12-20T05:22:06.916Z,97096.16
2022-12-20T05:24:55.131Z,97084.31
2022-12-20T05:27:31.820Z,97084.22
2022-12-20T05:29:58.647Z,97093.63
2022-12-20T05:32:27.660Z,97091.53
2022-12-20T05:34:55.324Z,97093.91
2022-12-20T05:37:22.395Z,97084.78
2022-12-20T05:39:50.291Z,97084.38
2022-12-20T05:42:20.999Z,97079.44
2022-12-20T05:44:51.491Z,97067.38
2022-12-20T05:47:20.516Z,97073.25
2022-12-20T05:49:49.811Z,97060.44
2022-12-20T05:52:16.633Z,97061.00
2022-12-20T05:54:43.692Z,97065.38
2022-12-20T05:57:15.904Z,97066.09
2022-12-20T05:59:42.841Z,97064.97
2022-12-20T06:02:27.807Z,97078.03
2022-12-20T06:05:02.709Z,97072.69
2022-12-20T06:07:30.370Z,97074.41
2022-12-20T06:09:59.738Z,97068.91
2022-12-20T06:12:38.420Z,97066.06
2022-12-20T06:15:05.619Z,97057.09
2022-12-20T06:17:35.318Z,97062.28
2022-12-20T06:20:02.693Z,97068.19
2022-12-20T06:22:30.184Z,97071.56
2022-12-20T06:24:57.659Z,97067.94
2022-12-20T06:27:28.024Z,97072.13
2022-12-20T06:30:16.985Z,97078.03
2022-12-20T06:33:04.350Z,97071.44
2022-12-20T06:35:31.977Z,97070.16
2022-12-20T06:37:59.687Z,97084.94
2022-12-20T06:40:29.589Z,97080.16
2022-12-20T06:42:59.949Z,97072.53
2022-12-20T06:45:26.869Z,97075.47
2022-12-20T06:47:54.532Z,97064.47
2022-12-20T06:50:23.356Z,97066.88
2022-12-20T06:52:50.416Z,97074.47
2022-12-20T06:55:17.556Z,97070.78
2022-12-20T06:57:45.901Z,97082.22
2022-12-20T07:00:13.913Z,97078.53
2022-12-20T07:02:41.028Z,97068.38
2022-12-20T07:05:08.265Z,97068.22
2022-12-20T07:07:40.228Z,97065.44
2022-12-20T07:10:11.267Z,97054.56
2022-12-20T07:12:42.372Z,97055.41
2022-12-20T07:15:12.362Z,97062.31
2022-12-20T07:17:39.231Z,97064.69
2022-12-20T07:20:12.927Z,97056.66
2022-12-20T07:22:40.609Z,97058.19
2022-12-20T07:25:07.594Z,97060.03
2022-12-20T07:27:34.365Z,97060.88
2022-12-20T07:30:01.116Z,97057.50
2022-12-20T07:32:27.902Z,97065.66
2022-12-20T07:34:54.675Z,97069.22
2022-12-20T07:37:21.554Z,97062.03
2022-12-20T07:39:48.320Z,97067.38
2022-12-20T07:42:15.590Z,97069.22
2022-12-20T07:44:43.393Z,97054.13
2022-12-20T07:47:10.588Z,97058.63
2022-12-20T07:49:37.574Z,97051.44
2022-12-20T07:52:05.772Z,97051.59
2022-12-20T07:54:37.567Z,97051.75
2022-12-20T07:57:15.239Z,97050.88
2022-12-20T07:59:47.586Z,97048.06
2022-12-20T08:02:23.480Z,97057.50
2022-12-20T08:04:50.751Z,97049.88
2022-12-20T08:07:17.689Z,97042.69
2022-12-20T08:09:45.380Z,97039.00
2022-12-20T08:12:16.877Z,97040.72
2022-12-20T08:14:44.024Z,97036.03
2022-12-20T08:17:11.762Z,97034.06
2022-12-20T08:19:38.784Z,97036.63
2022-12-20T08:22:06.148Z,97045.50
2022-12-20T08:24:34.516Z,97036.63
2022-12-20T08:27:01.388Z,97036.63
2022-12-20T08:29:28.277Z,97037.47
2022-12-20T08:31:55.093Z,97038.16
2022-12-20T08:34:21.908Z,97026.47
2022-12-20T08:36:48.771Z,97031.66
2022-12-20T08:39:15.556Z,97028.84
2022-12-20T08:41:42.377Z,97024.00
2022-12-20T08:44:10.619Z,97015.84
2022-12-20T08:46:37.761Z,97011.88
2022-12-20T08:49:06.419Z,97012.56
2022-12-20T08:51:33.288Z,97013.09
2022-12-20T08:54:00.267Z,97011.97
2022-12-20T08:56:27.014Z,97009.97
2022-12-20T08:58:53.838Z,97005.47
2022-12-20T09:01:21.853Z,97005.31
2022-12-20T09:03:49.360Z,97003.31
2022-12-20T09:06:21.420Z,96990.75
2022-12-20T09:08:48.884Z,96995.84
2022-12-20T09:11:25.128Z,97004.03
2022-12-20T09:13:58.002Z,97011.75
2022-12-20T09:16:32.239Z,97008.09
2022-12-20T09:19:05.419Z,97011.31
2022-12-20T09:21:34.136Z,97017.19
2022-12-20T09:24:00.887Z,97021.44
2022-12-20T09:26:27.775Z,97014.94
2022-12-20T09:28:54.633Z,97003.88
2022-12-20T09:31:25.269Z,97007.44
2022-12-20T09:33:57.891Z,97008.94
2022-12-20T09:36:27.509Z,97005.97
2022-12-20T09:38:55.562Z,97003.97
2022-12-20T09:41:30.093Z,97006.66
2022-12-20T09:43:59.212Z,97013.41
2022-12-20T09:46:27.236Z,97011.44
2022-12-20T09:48:54.513Z,97007.56
2022-12-20T09:51:47.237Z,97005.22
2022-12-20T09:54:46.701Z,97002.22
2022-12-20T09:57:48.987Z,97009.81
2022-12-20T10:00:19.172Z,96996.81
2022-12-20T10:03:06.112Z,96988.97
2022-12-20T10:05:56.402Z,96986.28
2022-12-20T10:08:50.549Z,96988.66
2022-12-20T10:11:51.106Z,96975.97
2022-12-20T10:14:27.107Z,96976.47
2022-12-20T10:17:01.496Z,96979.69
2022-12-20T10:19:49.825Z,96977.00
2022-12-20T10:22:29.391Z,96971.16
2022-12-20T10:25:11.675Z,96958.44
2022-12-20T10:27:43.134Z,96961.38
2022-12-20T10:30:16.157Z,96972.78
2022-12-20T10:32:49.573Z,96965.56
2022-12-20T10:35:40.367Z,96969.25
2022-12-20T10:38:13.715Z,96963.25
2022-12-20T10:41:19.556Z,96962.09
2022-12-20T10:43:47.808Z,96949.53
2022-12-20T10:46:19.305Z,96946.22
2022-12-20T10:48:48.852Z,96942.66
2022-12-20T10:51:21.912Z,96943.53
2022-12-20T10:53:57.669Z,96950.41
2022-12-20T10:56:29.326Z,96951.13
2022-12-20T10:59:03.340Z,96928.63
2022-12-20T11:01:35.438Z,96917.72
2022-12-20T11:04:07.052Z,96914.06
2022-12-20T11:06:45.386Z,96912.34
2022-12-20T11:09:35.273Z,96914.06
2022-12-20T11:12:12.575Z,96909.09
2022-12-20T11:14:41.788Z,96900.72
2022-12-20T11:17:14.519Z,96914.16
2022-12-20T11:20:16.742Z,96903.53
2022-12-20T11:22:51.365Z,96910.44
2022-12-20T11:25:56.266Z,96893.50
2022-12-20T11:28:44.511Z,96889.50
2022-12-20T11:31:36.297Z,96890.03
2022-12-20T11:34:42.673Z,96885.63
2022-12-20T11:37:24.927Z,96878.63
2022-12-20T11:40:10.746Z,96855.13
2022-12-20T11:43:25.185Z,96844.38
2022-12-20T11:46:30.834Z,96851.47
2022-12-20T11:49:27.767Z,96871.75
2022-12-20T11:52:10.541Z,96869.78
2022-12-20T11:54:47.109Z,96878.50
2022-12-20T11:57:26.591Z,96883.72
2022-12-20T12:00:00.523Z,96869.28
2022-12-20T12:02:51.611Z,96859.56
2022-12-20T12:05:51.253Z,96853.81
2022-12-20T12:08:27.882Z,96850.50
2022-12-20T12:11:06.280Z,96836.75
2022-12-20T12:13:37.942Z,96848.03
2022-12-20T12:16:30.397Z,96840.63
2022-12-20T12:19:00.668Z,96839.94
2022-12-20T12:21:37.193Z,96826.38
2022-12-20T12:24:33.435Z,96836.09
2022-12-20T12:27:00.899Z,96837.97
2022-12-20T12:29:30.865Z,96835.13
2022-12-20T12:32:11.186Z,96839.50
2022-12-20T12:35:28.541Z,96835.13
2022-12-20T12:38:36.253Z,96828.25
2022-12-20T12:41:34.985Z,96832.78
2022-12-20T12:44:20.669Z,96804.06
2022-12-20T12:46:58.155Z,96788.78
2022-12-20T12:49:29.804Z,96780.84
2022-12-20T12:52:01.327Z,96779.19
2022-12-20T12:54:39.405Z,96760.88
2022-12-20T12:57:16.166Z,96767.28
2022-12-20T12:59:48.661Z,96762.91
2022-12-20T13:02:16.208Z,96785.56
2022-12-20T13:05:10.556Z,96790.09
2022-12-20T13:07:37.388Z,96795.97
2022-12-20T13:10:10.201Z,96797.44
2022-12-20T13:12:36.911Z,96797.31
2022-12-20T13:15:26.395Z,96793.75
2022-12-20T13:18:17.732Z,96797.28
2022-12-20T13:21:29.183Z,96805.84
2022-12-20T13:24:42.427Z,96797.78
2022-12-20T13:27:23.557Z,96787.69
2022-12-20T13:29:57.527Z,96787.38
2022-12-20T13:32:56.861Z,96777.78
2022-12-20T13:35:26.895Z,96766.56
2022-12-20T13:38:01.883Z,96772.59
2022-12-20T13:40:43.628Z,96768.75
2022-12-20T13:43:19.439Z,96765.19
2022-12-20T13:45:51.127Z,96771.25
2022-12-20T13:48:28.644Z,96760.53
2022-12-20T13:50:57.412Z,96759.19
2022-12-20T13:53:27.167Z,96760.03
2022-12-20T13:55:54.874Z,96759.00
2022-12-20T13:58:27.243Z,96751.97
2022-12-20T14:01:05.477Z,96749.44
2022-12-20T14:03:33.849Z,96743.72
2022-12-20T14:06:09.805Z,96748.75
2022-12-20T14:08:42.296Z,96751.44
2022-12-20T14:11:24.156Z,96751.63
2022-12-20T14:14:00.421Z,96743.56
2022-12-20T14:16:30.752Z,96744.09
2022-12-20T14:18:57.445Z,96744.75
2022-12-20T14:21:25.615Z,96741.03
2022-12-20T14:23:56.533Z,96737.69
2022-12-20T14:26:45.458Z,96736.16
2022-12-20T14:29:18.396Z,96730.66
2022-12-20T14:31:49.927Z,96725.09
2022-12-20T14:34:29.329Z,96735.84
2022-12-20T14:37:19.835Z,96742.03
2022-12-20T14:40:11.212Z,96743.06
2022-12-20T14:42:40.192Z,96739.34
2022-12-20T14:45:09.616Z,96730.63
2022-12-20T14:47:37.936Z,96720.03
2022-12-20T14:50:18.779Z,96729.44
2022-12-20T14:52:46.048Z,96729.28
2022-12-20T14:55:25.380Z,96726.41
2022-12-20T14:57:55.173Z,96721.88
2022-12-20T15:00:29.812Z,96708.44
2022-12-20T15:02:56.724Z,96713.50
2022-12-20T15:05:36.365Z,96701.41
2022-12-20T15:08:33.779Z,96696.22
2022-12-20T15:11:10.222Z,96693.53
2022-12-20T15:13:49.795Z,96694.38
2022-12-20T15:16:24.140Z,96705.09
2022-12-20T15:18:55.119Z,96709.63
2022-12-20T15:21:42.655Z,96711.28
2022-12-20T15:24:14.222Z,96713.16
2022-12-20T15:26:41.356Z,96712.31
2022-12-20T15:29:15.555Z,96719.16
2022-12-20T15:31:42.529Z,96708.41
2022-12-20T15:34:38.220Z,96712.75
2022-12-20T15:37:06.179Z,96715.09
2022-12-20T15:39:34.155Z,96711.75
2022-12-20T15:42:04.882Z,96707.69
2022-12-20T15:44:32.346Z,96719.28
2022-12-20T15:46:59.471Z,96708.53
2022-12-20T15:49:30.281Z,96701.63
2022-12-20T15:51:57.091Z,96704.84
2022-12-20T15:54:34.604Z,96708.72
2022-12-20T15:57:13.524Z,96720.09
2022-12-20T16:02:30.745Z,96717.09
2022-12-20T16:04:58.637Z,96716.81
2022-12-20T16:07:25.544Z,96717.47
2022-12-20T16:09:52.380Z,96718.31
2022-12-20T16:12:28.411Z,96713.13
2022-12-20T16:14:55.382Z,96717.16
2022-12-20T16:17:22.254Z,96709.94
2022-12-20T16:19:49.058Z,96717.00
2022-12-20T16:22:19.237Z,96719.84
2022-12-20T16:24:46.596Z,96724.19
2022-12-20T16:27:13.940Z,96715.13
2022-12-20T16:29:41.493Z,96720.50
2022-12-20T16:32:18.869Z,96715.31
2022-12-20T16:34:46.302Z,96713.47
2022-12-20T16:37:13.856Z,96718.84
2022-12-20T16:39:41.592Z,96710.78
2022-12-20T16:42:17.308Z,96704.06
2022-12-20T16:44:45.335Z,96705.59
2022-12-20T16:47:13.658Z,96716.16
2022-12-20T16:49:47.294Z,96718.84
2022-12-20T16:52:19.586Z,96712.44
2022-12-20T16:54:46.604Z,96710.28
2022-12-20T16:57:13.533Z,96710.97
2022-12-20T16:59:40.353Z,96701.72
2022-12-20T17:02:24.808Z,96701.06
2022-12-20T17:04:52.010Z,96703.91
2022-12-20T17:07:18.871Z,96700.06
2022-12-20T17:12:30.040Z,96706.09
2022-12-20T17:14:57.036Z,96701.59
2022-12-20T17:17:23.813Z,96691.69
2022-12-20T17:19:50.617Z,96681.94
2022-12-20T17:22:24.731Z,96678.59
2022-12-20T17:24:51.720Z,96684.97
2022-12-20T17:27:18.921Z,96693.34
2022-12-20T17:29:45.720Z,96689.97
2022-12-20T17:32:21.603Z,96690.34
2022-12-20T17:34:48.764Z,96684.59
2022-12-20T17:37:17.783Z,96687.66
2022-12-20T17:39:44.583Z,96691.00
2022-12-20T17:42:19.142Z,96686.47
2022-12-20T17:44:48.772Z,96684.47
2022-12-20T17:47:17.135Z,96680.75
2022-12-20T17:49:43.887Z,96678.91
2022-12-20T17:52:15.276Z,96670.03
2022-12-20T17:54:42.095Z,96675.91
2022-12-20T17:57:15.900Z,96664.47
2022-12-20T17:59:43.104Z,96657.75
2022-12-20T18:02:25.803Z,96661.66
2022-12-20T18:04:53.102Z,96658.44
2022-12-20T18:07:20.344Z,96645.69
2022-12-20T18:09:48.293Z,96660.97
2022-12-20T18:12:15.272Z,96667.03
2022-12-20T18:14:42.138Z,96673.22
2022-12-20T18:17:09.015Z,96670.72
2022-12-20T18:19:35.925Z,96670.88
2022-12-20T18:22:04.438Z,96674.56
2022-12-20T18:24:31.285Z,96680.13
2022-12-20T18:26:58.071Z,96675.72
2022-12-20T18:29:24.863Z,96680.25
2022-12-20T18:31:52.405Z,96660.44
2022-12-20T18:34:19.437Z,96659.47
2022-12-20T18:36:46.229Z,96654.09
2022-12-20T18:39:13.546Z,96663.00
2022-12-20T18:41:42.781Z,96671.56
2022-12-20T18:44:11.272Z,96669.72
2022-12-20T18:46:38.201Z,96665.81
2022-12-20T18:49:05.131Z,96657.44
2022-12-20T18:51:37.903Z,96675.22
2022-12-20T18:54:07.759Z,96667.69
2022-12-20T18:56:37.646Z,96673.88
2022-12-20T18:59:11.485Z,96662.16
2022-12-20T19:01:41.466Z,96668.53
2022-12-20T19:04:09.062Z,96670.56
2022-12-20T19:06:36.823Z,96660.97
2022-12-20T19:09:07.900Z,96672.06
2022-12-20T19:11:35.303Z,96675.72
2022-12-20T19:14:02.546Z,96673.41
2022-12-20T19:16:32.433Z,96669.19
2022-12-20T19:19:01.492Z,96658.44
2022-12-20T19:21:31.585Z,96664.00
2022-12-20T19:24:04.946Z,96662.16
2022-12-20T19:26:31.743Z,96662.81
2022-12-20T19:28:58.853Z,96661.78
2022-12-20T19:31:32.078Z,96647.53
2022-12-20T19:34:03.243Z,96649.06
2022-12-20T19:36:38.629Z,96647.22
2022-12-20T19:39:10.495Z,96647.72
2022-12-20T19:41:37.283Z,96653.75
2022-12-20T19:44:05.990Z,96652.91
2022-12-20T19:46:33.190Z,96645.69
2022-12-20T19:49:01.271Z,96640.31
2022-12-20T19:51:28.847Z,96641.84
2022-12-20T19:53:57.632Z,96642.84
2022-12-20T19:56:29.095Z,96640.81
2022-12-20T19:58:56.481Z,96642.16
2022-12-20T20:01:26.702Z,96648.38
2022-12-20T20:03:57.066Z,96659.97
2022-12-20T20:06:24.380Z,96650.72
2022-12-20T20:08:51.696Z,96642.50
2022-12-20T20:11:20.098Z,96638.13
2022-12-20T20:13:47.451Z,96646.88
2022-12-20T20:16:20.257Z,96634.63
2022-12-20T20:18:49.691Z,96650.06
2022-12-20T20:21:21.227Z,96641.31
2022-12-20T20:23:50.473Z,96644.00
2022-12-20T20:26:22.216Z,96648.56
2022-12-20T20:28:49.250Z,96654.75
2022-12-20T20:31:18.431Z,96653.28
2022-12-20T20:33:46.128Z,96654.25
2022-12-20T20:36:16.768Z,96662.31
2022-12-20T20:38:43.819Z,96665.50
2022-12-20T20:41:11.537Z,96674.56
2022-12-20T20:43:39.166Z,96677.09
2022-12-20T20:46:09.305Z,96672.72
2022-12-20T20:48:36.983Z,96669.84
2022-12-20T20:51:04.811Z,96669.03
2022-12-20T20:53:34.116Z,96675.22
2022-12-20T20:56:02.946Z,96675.41
2022-12-20T20:58:30.186Z,96672.72
2022-12-20T21:01:01.695Z,96679.25
2022-12-20T21:03:30.518Z,96671.19
2022-12-20T21:08:44.862Z,96678.44
2022-12-20T21:11:11.872Z,96682.13
2022-12-20T21:13:38.929Z,96682.31
2022-12-20T21:16:08.517Z,96679.94
2022-12-20T21:18:35.376Z,96677.44
2022-12-20T21:21:11.432Z,96677.25
2022-12-20T21:23:43.567Z,96664.84
2022-12-20T21:26:10.403Z,96666.84
2022-12-20T21:28:37.225Z,96658.13
2022-12-20T21:31:09.014Z,96658.28
2022-12-20T21:33:35.968Z,96648.38
2022-12-20T21:36:11.027Z,96650.56
2022-12-20T21:38:37.888Z,96658.44
2022-12-20T21:41:08.853Z,96656.09
2022-12-20T21:43:35.647Z,96654.25
2022-12-20T21:46:03.048Z,96651.56
2022-12-20T21:48:30.639Z,96650.06
2022-12-20T21:51:13.627Z,96641.69
2022-12-20T21:53:46.781Z,96636.31
2022-12-20T21:56:13.938Z,96628.41
2022-12-20T21:58:40.749Z,96634.78
2022-12-20T22:01:09.004Z,96630.56
2022-12-20T22:03:37.708Z,96629.19
2022-12-20T22:06:05.086Z,96644.47
2022-12-20T22:08:33.109Z,96651.84
2022-12-20T22:11:01.338Z,96664.59
2022-12-20T22:13:30.604Z,96677.50
2022-12-20T22:16:05.311Z,96677.16
2022-12-20T22:18:32.218Z,96676.97
2022-12-20T22:20:59.020Z,96669.94
2022-12-20T22:23:25.806Z,96651.16
2022-12-20T22:25:52.633Z,96651.16
2022-12-20T22:28:19.394Z,96647.63
2022-12-20T22:30:46.262Z,96655.84
2022-12-20T22:33:13.168Z,96667.59
2022-12-20T22:35:40.988Z,96659.56
2022-12-20T22:38:07.878Z,96665.91
2022-12-20T22:40:34.674Z,96675.97
2022-12-20T22:43:01.504Z,96672.59
2022-12-20T22:45:28.323Z,96669.06
2022-12-20T22:47:55.115Z,96663.03
2022-12-20T22:50:22.129Z,96665.72
2022-12-20T22:52:48.930Z,96665.03
2022-12-20T22:55:15.855Z,96665.22
2022-12-20T22:57:42.647Z,96658.31
2022-12-20T23:00:13.137Z,96656.97
2022-12-20T23:02:41.092Z,96646.56
2022-12-20T23:05:09.084Z,96645.56
2022-12-20T23:07:36.024Z,96653.75
2022-12-20T23:10:02.910Z,96652.28
2022-12-20T23:12:48.091Z,96648.88
2022-12-20T23:15:33.309Z,96641.16
2022-12-20T23:18:00.181Z,96645.19
2022-12-20T23:20:53.138Z,96646.34
2022-12-20T23:23:19.969Z,96644.00
2022-12-20T23:25:46.724Z,96648.53
2022-12-20T23:28:13.511Z,96636.94
2022-12-20T23:30:40.332Z,96628.22
2022-12-20T23:33:07.099Z,96623.03
2022-12-20T23:35:33.881Z,96622.38
2022-12-20T23:38:02.235Z,96619.16
2022-12-20T23:40:29.035Z,96616.09
2022-12-20T23:42:55.773Z,96614.75
2022-12-20T23:45:22.607Z,96620.59
2022-12-20T23:47:49.431Z,96619.09
2022-12-20T23:50:16.242Z,96616.72
2022-12-20T23:52:43.016Z,96612.53
2022-12-20T23:55:09.996Z,96613.69
2022-12-20T23:57:36.751Z,96614.72
